sensor_id;sensor_type;location;lat;lon;timestamp;pressure;altitude;pressure_sealevel;temperature
12875;BMP180;6505;51.114;13.128;2022-10-16T00:01:44;99241.00;;;21.40
12875;BMP180;6505;51.114;13.128;2022-10-16T00:04:13;99249.00;;;21.40
12875;BMP180;6505;51.114;13.128;2022-10-16T00:06:41;99247.00;;;21.40
12875;BMP180;6505;51.114;13.128;2022-10-16T00:09:10;99241.00;;;21.40
12875;BMP180;6505;51.114;13.128;2022-10-16T00:11:40;99225.00;;;21.40
12875;BMP180;6505;51.114;13.128;2022-10-16T00:14:12;99229.00;;;21.30
12875;BMP180;6505;51.114;13.128;2022-10-16T00:16:41;99257.00;;;21.40
12875;BMP180;6505;51.114;13.128;2022-10-16T00:19:11;99271.00;;;21.40
12875;BMP180;6505;51.114;13.128;2022-10-16T00:21:42;99271.00;;;21.30
12875;BMP180;6505;51.114;13.128;2022-10-16T00:24:11;99263.00;;;21.30
12875;BMP180;6505;51.114;13.128;2022-10-16T00:26:40;99273.00;;;21.40
12875;BMP180;6505;51.114;13.128;2022-10-16T00:29:09;99269.00;;;21.30
12875;BMP180;6505;51.114;13.128;2022-10-16T00:31:37;99282.00;;;21.30
12875;BMP180;6505;51.114;13.128;2022-10-16T00:34:06;99275.00;;;21.30
12875;BMP180;6505;51.114;13.128;2022-10-16T00:36:34;99272.00;;;21.40
12875;BMP180;6505;51.114;13.128;2022-10-16T00:39:03;99265.00;;;21.30
12875;BMP180;6505;51.114;13.128;2022-10-16T00:41:33;99267.00;;;21.30
12875;BMP180;6505;51.114;13.128;2022-10-16T00:46:47;99271.00;;;21.30
12875;BMP180;6505;51.114;13.128;2022-10-16T00:49:19;99281.00;;;21.30
12875;BMP180;6505;51.114;13.128;2022-10-16T00:51:52;99287.00;;;21.30
12875;BMP180;6505;51.114;13.128;2022-10-16T00:54:25;99283.00;;;21.30
12875;BMP180;6505;51.114;13.128;2022-10-16T00:56:58;99281.00;;;21.30
12875;BMP180;6505;51.114;13.128;2022-10-16T00:59:31;99286.00;;;21.30
12875;BMP180;6505;51.114;13.128;2022-10-16T01:02:01;99293.00;;;21.30
12875;BMP180;6505;51.114;13.128;2022-10-16T01:04:36;99278.00;;;21.30
12875;BMP180;6505;51.114;13.128;2022-10-16T01:07:14;99289.00;;;21.30
12875;BMP180;6505;51.114;13.128;2022-10-16T01:09:55;99299.00;;;21.30
12875;BMP180;6505;51.114;13.128;2022-10-16T01:12:38;99270.00;;;21.30
12875;BMP180;6505;51.114;13.128;2022-10-16T01:15:24;99276.00;;;21.30
12875;BMP180;6505;51.114;13.128;2022-10-16T01:18:00;99285.00;;;21.30
12875;BMP180;6505;51.114;13.128;2022-10-16T01:20:35;99282.00;;;21.30
12875;BMP180;6505;51.114;13.128;2022-10-16T01:23:21;99269.00;;;21.30
12875;BMP180;6505;51.114;13.128;2022-10-16T01:26:28;99279.00;;;21.30
12875;BMP180;6505;51.114;13.128;2022-10-16T01:29:07;99286.00;;;21.30
12875;BMP180;6505;51.114;13.128;2022-10-16T01:31:40;99283.00;;;21.30
12875;BMP180;6505;51.114;13.128;2022-10-16T01:34:15;99287.00;;;21.30
12875;BMP180;6505;51.114;13.128;2022-10-16T01:36:50;99279.00;;;21.30
12875;BMP180;6505;51.114;13.128;2022-10-16T01:39:22;99284.00;;;21.30
12875;BMP180;6505;51.114;13.128;2022-10-16T01:41:59;99257.00;;;21.30
12875;BMP180;6505;51.114;13.128;2022-10-16T01:44:32;99282.00;;;21.30
12875;BMP180;6505;51.114;13.128;2022-10-16T01:47:04;99285.00;;;21.30
12875;BMP180;6505;51.114;13.128;2022-10-16T01:49:37;99283.00;;;21.30
12875;BMP180;6505;51.114;13.128;2022-10-16T01:52:10;99281.00;;;21.30
12875;BMP180;6505;51.114;13.128;2022-10-16T01:54:43;99278.00;;;21.40
12875;BMP180;6505;51.114;13.128;2022-10-16T01:57:14;99277.00;;;21.40
12875;BMP180;6505;51.114;13.128;2022-10-16T01:59:51;99282.00;;;21.30
12875;BMP180;6505;51.114;13.128;2022-10-16T02:02:22;99286.00;;;21.40
12875;BMP180;6505;51.114;13.128;2022-10-16T02:04:59;99283.00;;;21.30
12875;BMP180;6505;51.114;13.128;2022-10-16T02:07:29;99277.00;;;21.40
12875;BMP180;6505;51.114;13.128;2022-10-16T02:09:57;99276.00;;;21.40
12875;BMP180;6505;51.114;13.128;2022-10-16T02:12:29;99285.00;;;21.40
12875;BMP180;6505;51.114;13.128;2022-10-16T02:15:00;99284.00;;;21.40
12875;BMP180;6505;51.114;13.128;2022-10-16T02:17:29;99275.00;;;21.40
12875;BMP180;6505;51.114;13.128;2022-10-16T02:19:59;99292.00;;;21.40
12875;BMP180;6505;51.114;13.128;2022-10-16T02:22:34;99299.00;;;21.40
12875;BMP180;6505;51.114;13.128;2022-10-16T02:25:08;99294.00;;;21.40
12875;BMP180;6505;51.114;13.128;2022-10-16T02:27:44;99306.00;;;21.40
12875;BMP180;6505;51.114;13.128;2022-10-16T02:30:23;99307.00;;;21.40
12875;BMP180;6505;51.114;13.128;2022-10-16T02:32:53;99308.00;;;21.40
12875;BMP180;6505;51.114;13.128;2022-10-16T02:35:24;99292.00;;;21.40
12875;BMP180;6505;51.114;13.128;2022-10-16T02:37:54;99309.00;;;21.40
12875;BMP180;6505;51.114;13.128;2022-10-16T02:40:25;99310.00;;;21.40
12875;BMP180;6505;51.114;13.128;2022-10-16T02:42:55;99295.00;;;21.40
12875;BMP180;6505;51.114;13.128;2022-10-16T02:45:25;99291.00;;;21.40
12875;BMP180;6505;51.114;13.128;2022-10-16T02:47:53;99289.00;;;21.40
12875;BMP180;6505;51.114;13.128;2022-10-16T02:50:21;99298.00;;;21.40
12875;BMP180;6505;51.114;13.128;2022-10-16T02:52:51;99309.00;;;21.30
12875;BMP180;6505;51.114;13.128;2022-10-16T02:55:19;99310.00;;;21.50
12875;BMP180;6505;51.114;13.128;2022-10-16T02:57:47;99323.00;;;21.40
12875;BMP180;6505;51.114;13.128;2022-10-16T03:00:17;99323.00;;;21.40
12875;BMP180;6505;51.114;13.128;2022-10-16T03:02:46;99324.00;;;21.50
12875;BMP180;6505;51.114;13.128;2022-10-16T03:05:15;99315.00;;;21.50
12875;BMP180;6505;51.114;13.128;2022-10-16T03:07:43;99325.00;;;21.50
12875;BMP180;6505;51.114;13.128;2022-10-16T03:10:12;99314.00;;;21.50
12875;BMP180;6505;51.114;13.128;2022-10-16T03:12:40;99329.00;;;21.50
12875;BMP180;6505;51.114;13.128;2022-10-16T03:15:09;99318.00;;;21.50
12875;BMP180;6505;51.114;13.128;2022-10-16T03:17:37;99308.00;;;21.50
12875;BMP180;6505;51.114;13.128;2022-10-16T03:20:08;99311.00;;;21.50
12875;BMP180;6505;51.114;13.128;2022-10-16T03:22:36;99320.00;;;21.50
12875;BMP180;6505;51.114;13.128;2022-10-16T03:25:06;99313.00;;;21.50
12875;BMP180;6505;51.114;13.128;2022-10-16T03:27:34;99305.00;;;21.50
12875;BMP180;6505;51.114;13.128;2022-10-16T03:30:03;99316.00;;;21.40
12875;BMP180;6505;51.114;13.128;2022-10-16T03:32:31;99290.00;;;21.50
12875;BMP180;6505;51.114;13.128;2022-10-16T03:35:07;99326.00;;;21.40
12875;BMP180;6505;51.114;13.128;2022-10-16T03:37:35;99315.00;;;21.50
12875;BMP180;6505;51.114;13.128;2022-10-16T03:40:05;99324.00;;;21.40
12875;BMP180;6505;51.114;13.128;2022-10-16T03:42:33;99324.00;;;21.50
12875;BMP180;6505;51.114;13.128;2022-10-16T03:45:02;99322.00;;;21.50
12875;BMP180;6505;51.114;13.128;2022-10-16T03:47:30;99309.00;;;21.50
12875;BMP180;6505;51.114;13.128;2022-10-16T03:50:00;99334.00;;;21.40
12875;BMP180;6505;51.114;13.128;2022-10-16T03:52:30;99342.00;;;21.40
12875;BMP180;6505;51.114;13.128;2022-10-16T03:54:59;99350.00;;;21.50
12875;BMP180;6505;51.114;13.128;2022-10-16T03:57:27;99313.00;;;21.40
12875;BMP180;6505;51.114;13.128;2022-10-16T03:59:56;99345.00;;;21.40
12875;BMP180;6505;51.114;13.128;2022-10-16T04:02:24;99352.00;;;21.30
12875;BMP180;6505;51.114;13.128;2022-10-16T04:04:53;99354.00;;;21.40
12875;BMP180;6505;51.114;13.128;2022-10-16T04:07:21;99324.00;;;21.40
12875;BMP180;6505;51.114;13.128;2022-10-16T04:09:51;99342.00;;;21.40
12875;BMP180;6505;51.114;13.128;2022-10-16T04:12:20;99358.00;;;21.40
12875;BMP180;6505;51.114;13.128;2022-10-16T04:14:49;99359.00;;;21.40
12875;BMP180;6505;51.114;13.128;2022-10-16T04:17:17;99347.00;;;21.40
12875;BMP180;6505;51.114;13.128;2022-10-16T04:19:45;99365.00;;;21.40
12875;BMP180;6505;51.114;13.128;2022-10-16T04:22:13;99358.00;;;21.40
12875;BMP180;6505;51.114;13.128;2022-10-16T04:24:42;99357.00;;;21.40
12875;BMP180;6505;51.114;13.128;2022-10-16T04:27:11;99362.00;;;21.30
12875;BMP180;6505;51.114;13.128;2022-10-16T04:29:39;99355.00;;;21.40
12875;BMP180;6505;51.114;13.128;2022-10-16T04:32:09;99345.00;;;21.40
12875;BMP180;6505;51.114;13.128;2022-10-16T04:34:38;99355.00;;;21.40
12875;BMP180;6505;51.114;13.128;2022-10-16T04:37:07;99363.00;;;21.40
12875;BMP180;6505;51.114;13.128;2022-10-16T04:39:35;99356.00;;;21.30
12875;BMP180;6505;51.114;13.128;2022-10-16T04:42:03;99360.00;;;21.30
12875;BMP180;6505;51.114;13.128;2022-10-16T04:44:33;99360.00;;;21.40
12875;BMP180;6505;51.114;13.128;2022-10-16T04:47:01;99360.00;;;21.40
12875;BMP180;6505;51.114;13.128;2022-10-16T04:49:30;99362.00;;;21.40
12875;BMP180;6505;51.114;13.128;2022-10-16T04:51:59;99351.00;;;21.40
12875;BMP180;6505;51.114;13.128;2022-10-16T04:54:27;99356.00;;;21.40
12875;BMP180;6505;51.114;13.128;2022-10-16T04:56:56;99366.00;;;21.40
12875;BMP180;6505;51.114;13.128;2022-10-16T04:59:25;99378.00;;;21.40
12875;BMP180;6505;51.114;13.128;2022-10-16T05:01:54;99393.00;;;21.40
12875;BMP180;6505;51.114;13.128;2022-10-16T05:04:23;99394.00;;;21.40
12875;BMP180;6505;51.114;13.128;2022-10-16T05:06:52;99389.00;;;21.40
12875;BMP180;6505;51.114;13.128;2022-10-16T05:09:21;99382.00;;;21.40
12875;BMP180;6505;51.114;13.128;2022-10-16T05:11:50;99376.00;;;21.40
12875;BMP180;6505;51.114;13.128;2022-10-16T05:14:18;99383.00;;;21.40
12875;BMP180;6505;51.114;13.128;2022-10-16T05:16:46;99388.00;;;21.40
12875;BMP180;6505;51.114;13.128;2022-10-16T05:19:16;99378.00;;;21.40
12875;BMP180;6505;51.114;13.128;2022-10-16T05:21:54;99384.00;;;21.40
12875;BMP180;6505;51.114;13.128;2022-10-16T05:24:22;99382.00;;;21.40
12875;BMP180;6505;51.114;13.128;2022-10-16T05:26:51;99390.00;;;21.40
12875;BMP180;6505;51.114;13.128;2022-10-16T05:29:20;99403.00;;;21.40
12875;BMP180;6505;51.114;13.128;2022-10-16T05:31:51;99410.00;;;21.30
12875;BMP180;6505;51.114;13.128;2022-10-16T05:34:21;99397.00;;;21.30
12875;BMP180;6505;51.114;13.128;2022-10-16T05:36:49;99417.00;;;21.30
12875;BMP180;6505;51.114;13.128;2022-10-16T05:39:18;99414.00;;;21.30
12875;BMP180;6505;51.114;13.128;2022-10-16T05:41:46;99415.00;;;21.30
12875;BMP180;6505;51.114;13.128;2022-10-16T05:44:14;99410.00;;;21.40
12875;BMP180;6505;51.114;13.128;2022-10-16T05:46:43;99399.00;;;21.30
12875;BMP180;6505;51.114;13.128;2022-10-16T05:49:11;99412.00;;;21.30
12875;BMP180;6505;51.114;13.128;2022-10-16T05:51:40;99414.00;;;21.30
12875;BMP180;6505;51.114;13.128;2022-10-16T05:54:09;99417.00;;;21.30
12875;BMP180;6505;51.114;13.128;2022-10-16T05:56:37;99428.00;;;21.30
12875;BMP180;6505;51.114;13.128;2022-10-16T05:59:05;99431.00;;;21.30
12875;BMP180;6505;51.114;13.128;2022-10-16T06:01:34;99428.00;;;21.20
12875;BMP180;6505;51.114;13.128;2022-10-16T06:04:02;99445.00;;;21.30
12875;BMP180;6505;51.114;13.128;2022-10-16T06:06:31;99447.00;;;21.30
12875;BMP180;6505;51.114;13.128;2022-10-16T06:09:00;99453.00;;;21.30
12875;BMP180;6505;51.114;13.128;2022-10-16T06:11:31;99452.00;;;21.30
12875;BMP180;6505;51.114;13.128;2022-10-16T06:14:02;99453.00;;;21.30
12875;BMP180;6505;51.114;13.128;2022-10-16T06:16:35;99442.00;;;21.30
12875;BMP180;6505;51.114;13.128;2022-10-16T06:19:04;99447.00;;;21.30
12875;BMP180;6505;51.114;13.128;2022-10-16T06:21:34;99448.00;;;21.30
12875;BMP180;6505;51.114;13.128;2022-10-16T06:24:04;99446.00;;;21.30
12875;BMP180;6505;51.114;13.128;2022-10-16T06:26:32;99457.00;;;21.30
12875;BMP180;6505;51.114;13.128;2022-10-16T06:29:01;99456.00;;;21.30
12875;BMP180;6505;51.114;13.128;2022-10-16T06:31:29;99461.00;;;21.30
12875;BMP180;6505;51.114;13.128;2022-10-16T06:34:00;99462.00;;;21.30
12875;BMP180;6505;51.114;13.128;2022-10-16T06:36:30;99467.00;;;21.30
12875;BMP180;6505;51.114;13.128;2022-10-16T06:38:58;99461.00;;;21.30
12875;BMP180;6505;51.114;13.128;2022-10-16T06:41:27;99472.00;;;21.30
12875;BMP180;6505;51.114;13.128;2022-10-16T06:43:57;99476.00;;;21.30
12875;BMP180;6505;51.114;13.128;2022-10-16T06:46:27;99476.00;;;21.30
12875;BMP180;6505;51.114;13.128;2022-10-16T06:48:55;99478.00;;;21.30
12875;BMP180;6505;51.114;13.128;2022-10-16T06:51:25;99483.00;;;21.30
12875;BMP180;6505;51.114;13.128;2022-10-16T06:53:55;99486.00;;;21.30
12875;BMP180;6505;51.114;13.128;2022-10-16T06:56:32;99492.00;;;21.30
12875;BMP180;6505;51.114;13.128;2022-10-16T06:59:01;99499.00;;;21.30
12875;BMP180;6505;51.114;13.128;2022-10-16T07:01:29;99510.00;;;21.30
12875;BMP180;6505;51.114;13.128;2022-10-16T07:03:58;99507.00;;;21.40
12875;BMP180;6505;51.114;13.128;2022-10-16T07:06:26;99521.00;;;21.40
12875;BMP180;6505;51.114;13.128;2022-10-16T07:08:55;99522.00;;;21.40
12875;BMP180;6505;51.114;13.128;2022-10-16T07:11:24;99505.00;;;21.40
12875;BMP180;6505;51.114;13.128;2022-10-16T07:13:53;99522.00;;;21.40
12875;BMP180;6505;51.114;13.128;2022-10-16T07:16:25;99515.00;;;21.40
12875;BMP180;6505;51.114;13.128;2022-10-16T07:18:54;99523.00;;;21.40
12875;BMP180;6505;51.114;13.128;2022-10-16T07:21:28;99536.00;;;21.40
12875;BMP180;6505;51.114;13.128;2022-10-16T07:23:58;99545.00;;;21.40
12875;BMP180;6505;51.114;13.128;2022-10-16T07:26:31;99539.00;;;21.40
12875;BMP180;6505;51.114;13.128;2022-10-16T07:29:01;99541.00;;;21.50
12875;BMP180;6505;51.114;13.128;2022-10-16T07:31:31;99521.00;;;21.50
12875;BMP180;6505;51.114;13.128;2022-10-16T07:33:59;99535.00;;;21.50
12875;BMP180;6505;51.114;13.128;2022-10-16T07:36:28;99539.00;;;21.50
12875;BMP180;6505;51.114;13.128;2022-10-16T07:38:56;99524.00;;;21.50
12875;BMP180;6505;51.114;13.128;2022-10-16T07:41:27;99533.00;;;21.50
12875;BMP180;6505;51.114;13.128;2022-10-16T07:43:55;99528.00;;;21.60
12875;BMP180;6505;51.114;13.128;2022-10-16T07:46:28;99537.00;;;21.60
12875;BMP180;6505;51.114;13.128;2022-10-16T07:48:57;99540.00;;;21.60
12875;BMP180;6505;51.114;13.128;2022-10-16T07:51:26;99523.00;;;21.60
12875;BMP180;6505;51.114;13.128;2022-10-16T07:53:54;99543.00;;;21.60
12875;BMP180;6505;51.114;13.128;2022-10-16T07:56:23;99548.00;;;21.60
12875;BMP180;6505;51.114;13.128;2022-10-16T07:58:51;99537.00;;;21.60
12875;BMP180;6505;51.114;13.128;2022-10-16T08:01:20;99533.00;;;21.70
12875;BMP180;6505;51.114;13.128;2022-10-16T08:03:52;99536.00;;;21.70
12875;BMP180;6505;51.114;13.128;2022-10-16T08:06:22;99507.00;;;21.70
12875;BMP180;6505;51.114;13.128;2022-10-16T08:08:55;99522.00;;;21.70
12875;BMP180;6505;51.114;13.128;2022-10-16T08:11:23;99534.00;;;21.80
12875;BMP180;6505;51.114;13.128;2022-10-16T08:13:51;99527.00;;;21.80
12875;BMP180;6505;51.114;13.128;2022-10-16T08:16:20;99538.00;;;21.80
12875;BMP180;6505;51.114;13.128;2022-10-16T08:18:50;99538.00;;;21.80
12875;BMP180;6505;51.114;13.128;2022-10-16T08:21:21;99557.00;;;21.80
12875;BMP180;6505;51.114;13.128;2022-10-16T08:23:50;99555.00;;;21.90
12875;BMP180;6505;51.114;13.128;2022-10-16T08:26:25;99555.00;;;21.90
12875;BMP180;6505;51.114;13.128;2022-10-16T08:28:54;99540.00;;;21.90
12875;BMP180;6505;51.114;13.128;2022-10-16T08:31:24;99560.00;;;21.90
12875;BMP180;6505;51.114;13.128;2022-10-16T08:33:54;99540.00;;;21.90
12875;BMP180;6505;51.114;13.128;2022-10-16T08:36:22;99548.00;;;22.00
12875;BMP180;6505;51.114;13.128;2022-10-16T08:38:51;99541.00;;;22.00
12875;BMP180;6505;51.114;13.128;2022-10-16T08:41:49;99550.00;;;21.90
12875;BMP180;6505;51.114;13.128;2022-10-16T08:45:02;99555.00;;;21.90
12875;BMP180;6505;51.114;13.128;2022-10-16T08:47:46;99548.00;;;21.90
12875;BMP180;6505;51.114;13.128;2022-10-16T08:50:24;99549.00;;;22.00
12875;BMP180;6505;51.114;13.128;2022-10-16T08:52:55;99548.00;;;22.00
12875;BMP180;6505;51.114;13.128;2022-10-16T08:55:37;99539.00;;;22.00
12875;BMP180;6505;51.114;13.128;2022-10-16T08:58:13;99563.00;;;22.00
12875;BMP180;6505;51.114;13.128;2022-10-16T09:00:46;99566.00;;;22.00
12875;BMP180;6505;51.114;13.128;2022-10-16T09:03:35;99568.00;;;22.10
12875;BMP180;6505;51.114;13.128;2022-10-16T09:06:29;99573.00;;;22.10
12875;BMP180;6505;51.114;13.128;2022-10-16T09:09:39;99579.00;;;22.10
12875;BMP180;6505;51.114;13.128;2022-10-16T09:12:17;99587.00;;;22.20
12875;BMP180;6505;51.114;13.128;2022-10-16T09:15:01;99591.00;;;22.20
12875;BMP180;6505;51.114;13.128;2022-10-16T09:17:41;99579.00;;;22.20
12875;BMP180;6505;51.114;13.128;2022-10-16T09:20:40;99590.00;;;22.20
12875;BMP180;6505;51.114;13.128;2022-10-16T09:23:16;99587.00;;;22.20
12875;BMP180;6505;51.114;13.128;2022-10-16T09:25:48;99588.00;;;22.20
12875;BMP180;6505;51.114;13.128;2022-10-16T09:28:18;99604.00;;;22.30
12875;BMP180;6505;51.114;13.128;2022-10-16T09:30:47;99603.00;;;22.40
12875;BMP180;6505;51.114;13.128;2022-10-16T09:33:20;99609.00;;;22.40
12875;BMP180;6505;51.114;13.128;2022-10-16T09:35:51;99610.00;;;22.40
12875;BMP180;6505;51.114;13.128;2022-10-16T09:38:28;99607.00;;;22.40
12875;BMP180;6505;51.114;13.128;2022-10-16T09:40:58;99609.00;;;22.50
12875;BMP180;6505;51.114;13.128;2022-10-16T09:43:36;99614.00;;;22.50
12875;BMP180;6505;51.114;13.128;2022-10-16T09:46:19;99613.00;;;22.50
12875;BMP180;6505;51.114;13.128;2022-10-16T09:48:50;99610.00;;;22.50
12875;BMP180;6505;51.114;13.128;2022-10-16T09:51:25;99592.00;;;22.40
12875;BMP180;6505;51.114;13.128;2022-10-16T09:53:59;99613.00;;;22.50
12875;BMP180;6505;51.114;13.128;2022-10-16T09:56:29;99624.00;;;22.60
12875;BMP180;6505;51.114;13.128;2022-10-16T09:59:08;99616.00;;;22.60
12875;BMP180;6505;51.114;13.128;2022-10-16T10:01:39;99622.00;;;22.60
12875;BMP180;6505;51.114;13.128;2022-10-16T10:04:08;99623.00;;;22.60
12875;BMP180;6505;51.114;13.128;2022-10-16T10:06:43;99621.00;;;22.60
12875;BMP180;6505;51.114;13.128;2022-10-16T10:09:20;99631.00;;;22.70
12875;BMP180;6505;51.114;13.128;2022-10-16T10:11:53;99628.00;;;22.70
12875;BMP180;6505;51.114;13.128;2022-10-16T10:14:27;99630.00;;;22.70
12875;BMP180;6505;51.114;13.128;2022-10-16T10:17:14;99633.00;;;22.70
12875;BMP180;6505;51.114;13.128;2022-10-16T10:19:50;99607.00;;;22.70
12875;BMP180;6505;51.114;13.128;2022-10-16T10:22:29;99630.00;;;22.80
12875;BMP180;6505;51.114;13.128;2022-10-16T10:25:32;99635.00;;;22.80
12875;BMP180;6505;51.114;13.128;2022-10-16T10:28:21;99638.00;;;22.80
12875;BMP180;6505;51.114;13.128;2022-10-16T10:31:00;99648.00;;;22.80
12875;BMP180;6505;51.114;13.128;2022-10-16T10:33:42;99646.00;;;22.80
12875;BMP180;6505;51.114;13.128;2022-10-16T10:36:25;99653.00;;;22.90
12875;BMP180;6505;51.114;13.128;2022-10-16T10:38:59;99647.00;;;22.90
12875;BMP180;6505;51.114;13.128;2022-10-16T10:42:03;99644.00;;;22.90
12875;BMP180;6505;51.114;13.128;2022-10-16T10:45:00;99639.00;;;22.90
12875;BMP180;6505;51.114;13.128;2022-10-16T10:47:45;99650.00;;;22.90
12875;BMP180;6505;51.114;13.128;2022-10-16T10:50:25;99656.00;;;22.90
12875;BMP180;6505;51.114;13.128;2022-10-16T10:53:04;99648.00;;;22.90
12875;BMP180;6505;51.114;13.128;2022-10-16T10:55:43;99657.00;;;23.00
12875;BMP180;6505;51.114;13.128;2022-10-16T11:01:36;99643.00;;;23.00
12875;BMP180;6505;51.114;13.128;2022-10-16T11:04:35;99649.00;;;23.00
12875;BMP180;6505;51.114;13.128;2022-10-16T11:07:16;99641.00;;;23.00
12875;BMP180;6505;51.114;13.128;2022-10-16T11:09:50;99652.00;;;23.10
12875;BMP180;6505;51.114;13.128;2022-10-16T11:12:23;99657.00;;;23.10
12875;BMP180;6505;51.114;13.128;2022-10-16T11:15:03;99655.00;;;23.10
12875;BMP180;6505;51.114;13.128;2022-10-16T11:17:39;99651.00;;;23.10
12875;BMP180;6505;51.114;13.128;2022-10-16T11:20:16;99649.00;;;23.10
12875;BMP180;6505;51.114;13.128;2022-10-16T11:22:52;99656.00;;;23.00
12875;BMP180;6505;51.114;13.128;2022-10-16T11:25:26;99658.00;;;23.20
12875;BMP180;6505;51.114;13.128;2022-10-16T11:28:01;99668.00;;;23.20
12875;BMP180;6505;51.114;13.128;2022-10-16T11:30:42;99685.00;;;23.20
12875;BMP180;6505;51.114;13.128;2022-10-16T11:33:28;99681.00;;;23.20
12875;BMP180;6505;51.114;13.128;2022-10-16T11:36:10;99677.00;;;23.20
12875;BMP180;6505;51.114;13.128;2022-10-16T11:38:48;99669.00;;;23.20
12875;BMP180;6505;51.114;13.128;2022-10-16T11:41:27;99678.00;;;23.20
12875;BMP180;6505;51.114;13.128;2022-10-16T11:44:13;99668.00;;;23.20
12875;BMP180;6505;51.114;13.128;2022-10-16T11:46:52;99688.00;;;23.30
12875;BMP180;6505;51.114;13.128;2022-10-16T11:49:45;99671.00;;;23.30
12875;BMP180;6505;51.114;13.128;2022-10-16T11:52:23;99674.00;;;23.30
12875;BMP180;6505;51.114;13.128;2022-10-16T11:54:59;99670.00;;;23.30
12875;BMP180;6505;51.114;13.128;2022-10-16T11:57:34;99680.00;;;23.30
12875;BMP180;6505;51.114;13.128;2022-10-16T12:00:17;99681.00;;;23.40
12875;BMP180;6505;51.114;13.128;2022-10-16T12:03:01;99687.00;;;23.40
12875;BMP180;6505;51.114;13.128;2022-10-16T12:05:51;99693.00;;;23.40
12875;BMP180;6505;51.114;13.128;2022-10-16T12:08:21;99687.00;;;23.50
12875;BMP180;6505;51.114;13.128;2022-10-16T12:10:51;99693.00;;;23.50
12875;BMP180;6505;51.114;13.128;2022-10-16T12:13:31;99678.00;;;23.40
12875;BMP180;6505;51.114;13.128;2022-10-16T12:16:20;99687.00;;;23.40
12875;BMP180;6505;51.114;13.128;2022-10-16T12:19:11;99686.00;;;23.50
12875;BMP180;6505;51.114;13.128;2022-10-16T12:21:40;99694.00;;;23.50
12875;BMP180;6505;51.114;13.128;2022-10-16T12:24:27;99690.00;;;23.50
12875;BMP180;6505;51.114;13.128;2022-10-16T12:26:57;99688.00;;;23.60
12875;BMP180;6505;51.114;13.128;2022-10-16T12:29:34;99694.00;;;23.50
12875;BMP180;6505;51.114;13.128;2022-10-16T12:32:06;99688.00;;;23.60
12875;BMP180;6505;51.114;13.128;2022-10-16T12:35:20;99693.00;;;23.50
12875;BMP180;6505;51.114;13.128;2022-10-16T12:37:50;99701.00;;;23.60
12875;BMP180;6505;51.114;13.128;2022-10-16T12:40:28;99673.00;;;23.60
12875;BMP180;6505;51.114;13.128;2022-10-16T12:42:58;99692.00;;;23.70
12875;BMP180;6505;51.114;13.128;2022-10-16T12:45:30;99702.00;;;23.70
12875;BMP180;6505;51.114;13.128;2022-10-16T12:48:00;99698.00;;;23.70
12875;BMP180;6505;51.114;13.128;2022-10-16T12:50:35;99693.00;;;23.70
12875;BMP180;6505;51.114;13.128;2022-10-16T12:53:19;99705.00;;;23.70
12875;BMP180;6505;51.114;13.128;2022-10-16T12:55:59;99701.00;;;23.70
12875;BMP180;6505;51.114;13.128;2022-10-16T12:58:53;99705.00;;;23.70
12875;BMP180;6505;51.114;13.128;2022-10-16T13:01:40;99718.00;;;23.60
12875;BMP180;6505;51.114;13.128;2022-10-16T13:04:51;99710.00;;;23.70
12875;BMP180;6505;51.114;13.128;2022-10-16T13:07:40;99711.00;;;23.70
12875;BMP180;6505;51.114;13.128;2022-10-16T13:10:23;99707.00;;;23.70
12875;BMP180;6505;51.114;13.128;2022-10-16T13:13:40;99709.00;;;23.70
12875;BMP180;6505;51.114;13.128;2022-10-16T13:16:22;99717.00;;;23.80
12875;BMP180;6505;51.114;13.128;2022-10-16T13:19:08;99710.00;;;23.80
12875;BMP180;6505;51.114;13.128;2022-10-16T13:21:49;99694.00;;;23.80
12875;BMP180;6505;51.114;13.128;2022-10-16T13:24:48;99702.00;;;23.80
12875;BMP180;6505;51.114;13.128;2022-10-16T13:27:32;99711.00;;;23.80
12875;BMP180;6505;51.114;13.128;2022-10-16T13:30:15;99711.00;;;23.80
12875;BMP180;6505;51.114;13.128;2022-10-16T13:32:48;99711.00;;;23.90
12875;BMP180;6505;51.114;13.128;2022-10-16T13:35:24;99715.00;;;23.90
12875;BMP180;6505;51.114;13.128;2022-10-16T13:38:05;99719.00;;;23.90
12875;BMP180;6505;51.114;13.128;2022-10-16T13:40:34;99710.00;;;23.90
12875;BMP180;6505;51.114;13.128;2022-10-16T13:43:02;99718.00;;;23.90
12875;BMP180;6505;51.114;13.128;2022-10-16T13:45:30;99721.00;;;23.90
12875;BMP180;6505;51.114;13.128;2022-10-16T13:48:03;99717.00;;;23.90
12875;BMP180;6505;51.114;13.128;2022-10-16T13:50:32;99730.00;;;24.00
12875;BMP180;6505;51.114;13.128;2022-10-16T13:53:07;99724.00;;;23.90
12875;BMP180;6505;51.114;13.128;2022-10-16T13:55:41;99723.00;;;23.90
12875;BMP180;6505;51.114;13.128;2022-10-16T13:58:14;99731.00;;;23.90
12875;BMP180;6505;51.114;13.128;2022-10-16T14:00:58;99726.00;;;23.90
12875;BMP180;6505;51.114;13.128;2022-10-16T14:03:28;99721.00;;;24.00
12875;BMP180;6505;51.114;13.128;2022-10-16T14:06:01;99725.00;;;24.00
12875;BMP180;6505;51.114;13.128;2022-10-16T14:08:31;99728.00;;;24.00
12875;BMP180;6505;51.114;13.128;2022-10-16T14:11:01;99725.00;;;24.00
12875;BMP180;6505;51.114;13.128;2022-10-16T14:13:34;99719.00;;;24.00
12875;BMP180;6505;51.114;13.128;2022-10-16T14:16:09;99722.00;;;24.00
12875;BMP180;6505;51.114;13.128;2022-10-16T14:18:39;99729.00;;;24.00
12875;BMP180;6505;51.114;13.128;2022-10-16T14:21:14;99700.00;;;24.00
12875;BMP180;6505;51.114;13.128;2022-10-16T14:23:43;99725.00;;;24.10
12875;BMP180;6505;51.114;13.128;2022-10-16T14:26:19;99723.00;;;24.00
12875;BMP180;6505;51.114;13.128;2022-10-16T14:29:01;99734.00;;;24.00
12875;BMP180;6505;51.114;13.128;2022-10-16T14:31:33;99748.00;;;24.10
12875;BMP180;6505;51.114;13.128;2022-10-16T14:34:04;99738.00;;;24.10
12875;BMP180;6505;51.114;13.128;2022-10-16T14:36:34;99740.00;;;24.10
12875;BMP180;6505;51.114;13.128;2022-10-16T14:39:05;99738.00;;;24.10
12875;BMP180;6505;51.114;13.128;2022-10-16T14:41:44;99738.00;;;24.00
12875;BMP180;6505;51.114;13.128;2022-10-16T14:44:14;99726.00;;;24.10
12875;BMP180;6505;51.114;13.128;2022-10-16T14:46:45;99746.00;;;24.10
12875;BMP180;6505;51.114;13.128;2022-10-16T14:49:18;99755.00;;;24.10
12875;BMP180;6505;51.114;13.128;2022-10-16T14:51:47;99745.00;;;24.10
12875;BMP180;6505;51.114;13.128;2022-10-16T14:54:18;99764.00;;;24.10